Greenway Plaza, Texas
Current Conditions -  °F | °C
As of 2:55 PM on Thursday 18 Dec 2014 (Local Time) from KMCJ Reporting Station
Broken Clouds Broken Clouds  
Wind Chill: 72°   Ceiling: 6000
Heat Index: 72°   Visibility: NA
Dew Point: 63°   Wind: 0mph
Humidity: 73%   Direction: NA
Pressure: 29.99"   Gusts: NA
Location:  29.7287°N, 95.436°W
Report Text: KMCJ 182055Z AUTO 00000KT FEW023 BKN060 22/17 A2999 RMK AO1
Loading
Personal Weather Stations






























Interactive Weather Map New forecast layout! Learn more

10-Day Weather Forecast

Advertisements
Track Severe Weather on mobile